createdAt,value
2023-03-05T00:00:01.691Z,4.20
2023-03-05T00:02:31.750Z,4.20
2023-03-05T00:04:59.556Z,4.18
2023-03-05T00:07:29.451Z,4.17
2023-03-05T00:10:00.379Z,4.17
2023-03-05T00:12:28.169Z,4.20
2023-03-05T00:14:56.018Z,4.21
2023-03-05T00:17:25.176Z,4.22
2023-03-05T00:19:52.974Z,4.20
2023-03-05T00:22:20.670Z,4.20
2023-03-05T00:24:51.587Z,4.20
2023-03-05T00:27:19.569Z,4.20
2023-03-05T00:29:47.344Z,4.18
2023-03-05T00:32:15.206Z,4.13
2023-03-05T00:34:44.398Z,4.11
2023-03-05T00:37:12.185Z,4.11
2023-03-05T00:39:39.942Z,4.09
2023-03-05T00:42:08.410Z,4.08
2023-03-05T00:44:36.606Z,4.06
2023-03-05T00:47:05.154Z,4.05
2023-03-05T00:49:33.048Z,4.04
2023-03-05T00:52:02.151Z,4.00
2023-03-05T00:54:29.877Z,3.96
2023-03-05T00:56:57.684Z,3.95
2023-03-05T00:59:25.440Z,3.89
2023-03-05T01:01:53.234Z,3.87
2023-03-05T01:04:21.047Z,3.83
2023-03-05T01:06:48.838Z,3.82
2023-03-05T01:09:17.990Z,3.78
2023-03-05T01:11:45.734Z,3.75
2023-03-05T01:14:13.712Z,3.68
2023-03-05T01:16:41.515Z,3.65
2023-03-05T01:19:09.562Z,3.65
2023-03-05T01:21:38.051Z,3.60
2023-03-05T01:24:06.970Z,3.57
2023-03-05T01:26:36.158Z,3.53
2023-03-05T01:29:04.021Z,3.50
2023-03-05T01:31:31.858Z,3.47
2023-03-05T01:34:00.210Z,3.43
2023-03-05T01:36:28.095Z,3.41
2023-03-05T01:38:55.840Z,3.41
2023-03-05T01:41:23.587Z,3.42
2023-03-05T01:43:53.273Z,3.40
2023-03-05T01:46:32.585Z,3.37
2023-03-05T01:49:05.441Z,3.34
2023-03-05T01:51:38.334Z,3.32
2023-03-05T01:54:08.497Z,3.31
2023-03-05T01:56:36.982Z,3.30
2023-03-05T01:59:06.148Z,3.31
2023-03-05T02:01:37.851Z,3.30
2023-03-05T02:04:06.404Z,3.29
2023-03-05T02:06:34.931Z,3.29
2023-03-05T02:09:02.721Z,3.29
2023-03-05T02:11:30.903Z,3.26
2023-03-05T02:13:59.221Z,3.26
2023-03-05T02:16:35.798Z,3.27
2023-03-05T02:19:04.176Z,3.28
2023-03-05T02:21:39.774Z,3.28
2023-03-05T02:24:08.066Z,3.28
2023-03-05T02:26:35.804Z,3.28
2023-03-05T02:29:06.478Z,3.26
2023-03-05T02:31:34.310Z,3.24
2023-03-05T02:34:02.117Z,3.24
2023-03-05T02:36:29.864Z,3.23
2023-03-05T02:38:59.248Z,3.21
2023-03-05T02:41:27.693Z,3.19
2023-03-05T02:43:55.509Z,3.20
2023-03-05T02:46:23.284Z,3.20
2023-03-05T02:48:51.026Z,3.23
2023-03-05T02:51:19.103Z,3.21
2023-03-05T02:53:46.843Z,3.14
2023-03-05T02:56:15.939Z,3.12
2023-03-05T02:58:43.829Z,3.09
2023-03-05T03:01:11.660Z,3.06
2023-03-05T03:03:39.504Z,3.04
2023-03-05T03:06:08.308Z,3.03
2023-03-05T03:08:36.115Z,3.00
2023-03-05T03:11:08.908Z,2.99
2023-03-05T03:13:38.049Z,2.98
2023-03-05T03:16:07.646Z,2.96
2023-03-05T03:18:35.448Z,2.91
2023-03-05T03:21:03.710Z,2.89
2023-03-05T03:23:32.141Z,2.88
2023-03-05T03:25:59.966Z,2.88
2023-03-05T03:28:27.686Z,2.88
2023-03-05T03:30:56.830Z,2.88
2023-03-05T03:33:24.647Z,2.89
2023-03-05T03:35:52.412Z,2.89
2023-03-05T03:38:20.177Z,2.91
2023-03-05T03:40:47.912Z,2.88
2023-03-05T03:43:15.644Z,2.87
2023-03-05T03:45:43.749Z,2.90
2023-03-05T03:48:12.889Z,2.92
2023-03-05T03:50:41.102Z,2.95
2023-03-05T03:53:09.828Z,2.94
2023-03-05T03:55:37.553Z,2.96
2023-03-05T03:58:08.004Z,2.98
2023-03-05T04:00:36.012Z,3.00
2023-03-05T04:03:03.772Z,3.00
2023-03-05T04:05:32.976Z,2.99
2023-03-05T04:08:01.452Z,3.00
2023-03-05T04:10:29.198Z,2.85
2023-03-05T04:12:56.870Z,2.85
2023-03-05T04:15:25.030Z,2.78
2023-03-05T04:17:52.913Z,2.81
2023-03-05T04:20:20.714Z,2.84
2023-03-05T04:22:50.069Z,2.91
2023-03-05T04:25:18.062Z,2.91
2023-03-05T04:27:45.749Z,2.92
2023-03-05T04:30:15.587Z,2.92
2023-03-05T04:32:43.374Z,2.93
2023-03-05T04:35:11.308Z,2.95
2023-03-05T04:37:39.099Z,2.97
2023-03-05T04:40:09.653Z,3.00
2023-03-05T04:42:37.384Z,2.98
2023-03-05T04:45:06.717Z,2.93
2023-03-05T04:47:35.406Z,2.92
2023-03-05T04:50:03.855Z,2.87
2023-03-05T04:52:31.689Z,2.87
2023-03-05T04:54:59.761Z,2.87
2023-03-05T04:57:28.820Z,2.90
2023-03-05T04:59:56.779Z,2.92
2023-03-05T05:02:24.516Z,2.95
2023-03-05T05:04:54.048Z,2.96
2023-03-05T05:07:21.914Z,3.00
2023-03-05T05:09:49.665Z,3.03
2023-03-05T05:12:17.348Z,3.04
2023-03-05T05:14:46.436Z,3.05
2023-03-05T05:17:15.840Z,3.06
2023-03-05T05:19:43.593Z,3.02
2023-03-05T05:22:11.317Z,3.05
2023-03-05T05:24:39.043Z,3.04
2023-03-05T05:27:07.231Z,3.02
2023-03-05T05:29:35.004Z,3.04
2023-03-05T05:32:07.399Z,3.04
2023-03-05T05:34:35.207Z,3.01
2023-03-05T05:37:03.133Z,2.85
2023-03-05T05:39:30.828Z,2.86
2023-03-05T05:41:58.561Z,2.88
2023-03-05T05:44:26.349Z,2.91
2023-03-05T05:46:54.108Z,2.92
2023-03-05T05:49:23.242Z,2.95
2023-03-05T05:51:51.022Z,2.95
2023-03-05T05:54:18.742Z,2.94
2023-03-05T05:56:46.485Z,2.96
2023-03-05T05:59:14.256Z,2.95
2023-03-05T06:01:42.151Z,2.96
2023-03-05T06:04:09.963Z,2.96
2023-03-05T06:06:39.067Z,2.95
2023-03-05T06:09:06.943Z,2.96
2023-03-05T06:11:35.087Z,2.95
2023-03-05T06:14:03.749Z,2.95
2023-03-05T06:16:32.020Z,2.94
2023-03-05T06:19:00.120Z,2.92
2023-03-05T06:21:27.849Z,2.92
2023-03-05T06:23:58.727Z,2.90
2023-03-05T06:26:27.264Z,2.88
2023-03-05T06:28:55.358Z,2.88
2023-03-05T06:31:26.358Z,2.86
2023-03-05T06:33:56.229Z,2.86
2023-03-05T06:36:25.791Z,2.85
2023-03-05T06:38:54.618Z,2.85
2023-03-05T06:41:25.598Z,2.84
2023-03-05T06:43:53.523Z,2.85
2023-03-05T06:46:23.680Z,2.87
2023-03-05T06:48:52.145Z,2.88
2023-03-05T06:51:22.828Z,2.85
2023-03-05T06:53:50.872Z,2.87
2023-03-05T06:56:19.315Z,2.87
2023-03-05T06:58:50.597Z,2.87
2023-03-05T07:01:18.903Z,2.86
2023-03-05T07:03:50.443Z,2.83
2023-03-05T07:06:18.494Z,2.83
2023-03-05T07:08:46.214Z,2.83
2023-03-05T07:11:15.483Z,2.85
2023-03-05T07:13:44.461Z,2.85
2023-03-05T07:16:17.139Z,2.88
2023-03-05T07:18:45.021Z,2.84
2023-03-05T07:21:17.784Z,2.85
2023-03-05T07:23:45.591Z,2.88
2023-03-05T07:26:13.650Z,2.85
2023-03-05T07:28:42.091Z,2.88
2023-03-05T07:31:15.541Z,2.98
2023-03-05T07:33:43.389Z,3.00
2023-03-05T07:36:12.359Z,3.05
2023-03-05T07:38:40.177Z,3.08
2023-03-05T07:41:10.229Z,3.14
2023-03-05T07:43:38.400Z,3.19
2023-03-05T07:46:08.081Z,3.23
2023-03-05T07:48:37.516Z,3.25
2023-03-05T07:51:06.691Z,3.29
2023-03-05T07:53:34.494Z,3.31
2023-03-05T07:56:02.248Z,3.31
2023-03-05T07:58:30.157Z,3.25
2023-03-05T08:00:57.878Z,3.26
2023-03-05T08:03:25.716Z,3.20
2023-03-05T08:05:54.803Z,3.26
2023-03-05T08:08:22.641Z,3.30
2023-03-05T08:10:50.411Z,3.19
2023-03-05T08:13:18.161Z,3.17
2023-03-05T08:15:46.229Z,3.21
2023-03-05T08:18:15.533Z,3.22
2023-03-05T08:20:43.302Z,3.26
2023-03-05T08:23:12.451Z,3.31
2023-03-05T08:25:40.238Z,3.32
2023-03-05T08:28:08.026Z,3.34
2023-03-05T08:30:35.782Z,3.40
2023-03-05T08:33:03.555Z,3.43
2023-03-05T08:35:31.465Z,3.50
2023-03-05T08:37:59.204Z,3.53
2023-03-05T08:40:28.380Z,3.58
2023-03-05T08:42:56.153Z,3.62
2023-03-05T08:45:24.675Z,3.64
2023-03-05T08:47:52.374Z,3.68
2023-03-05T08:50:22.273Z,3.79
2023-03-05T08:52:50.190Z,3.83
2023-03-05T08:55:18.010Z,3.89
2023-03-05T08:57:47.099Z,3.95
2023-03-05T09:00:15.698Z,4.01
2023-03-05T09:02:43.460Z,4.11
2023-03-05T09:05:11.796Z,4.22
2023-03-05T09:07:39.536Z,4.30
2023-03-05T09:10:10.325Z,4.34
2023-03-05T09:12:38.258Z,4.40
2023-03-05T09:15:09.923Z,4.47
2023-03-05T09:17:38.300Z,4.53
2023-03-05T09:20:08.239Z,4.56
2023-03-05T09:22:35.956Z,4.58
2023-03-05T09:25:03.802Z,4.64
2023-03-05T09:27:34.442Z,4.71
2023-03-05T09:30:02.258Z,4.74
2023-03-05T09:32:31.444Z,4.71
2023-03-05T09:34:59.546Z,4.70
2023-03-05T09:37:27.883Z,4.76
2023-03-05T09:39:55.622Z,4.82
2023-03-05T09:42:38.068Z,4.87
2023-03-05T09:45:19.056Z,4.79
2023-03-05T09:47:54.822Z,4.80
2023-03-05T09:50:37.448Z,4.86
2023-03-05T09:53:15.995Z,4.90
2023-03-05T09:55:46.928Z,4.89
2023-03-05T09:58:19.048Z,4.88
2023-03-05T10:00:49.751Z,4.91
2023-03-05T10:03:24.040Z,5.00
2023-03-05T10:06:03.013Z,5.04
2023-03-05T10:08:40.808Z,5.11
2023-03-05T10:11:20.065Z,5.14
2023-03-05T10:13:48.759Z,5.17
2023-03-05T10:16:46.348Z,5.20
2023-03-05T10:19:22.426Z,5.09
2023-03-05T10:21:54.664Z,4.97
2023-03-05T10:24:33.076Z,4.79
2023-03-05T10:27:03.774Z,4.61
2023-03-05T10:29:56.134Z,4.48
2023-03-05T10:32:37.238Z,4.36
2023-03-05T10:35:20.798Z,4.32
2023-03-05T10:38:11.147Z,4.22
2023-03-05T10:40:45.855Z,4.16
2023-03-05T10:43:25.105Z,4.16
2023-03-05T10:45:54.627Z,4.05
2023-03-05T10:48:29.913Z,4.15
2023-03-05T10:51:03.937Z,4.19
2023-03-05T10:53:36.216Z,4.15
2023-03-05T10:56:05.561Z,4.21
2023-03-05T10:58:33.805Z,4.24
2023-03-05T11:01:05.837Z,4.29
2023-03-05T11:03:49.880Z,4.36
2023-03-05T11:06:28.829Z,4.53
2023-03-05T11:08:57.380Z,4.72
2023-03-05T11:11:25.168Z,4.87
2023-03-05T11:13:56.205Z,4.92
2023-03-05T11:16:26.594Z,4.96
2023-03-05T11:19:17.726Z,5.09
2023-03-05T11:21:48.771Z,5.29
2023-03-05T11:24:19.114Z,5.45
2023-03-05T11:26:50.574Z,5.51
2023-03-05T11:29:21.829Z,5.63
2023-03-05T11:31:50.283Z,5.77
2023-03-05T11:34:30.266Z,5.87
2023-03-05T11:37:06.289Z,6.04
2023-03-05T11:39:38.414Z,5.91
2023-03-05T11:42:11.626Z,5.90
2023-03-05T11:44:48.182Z,5.97
2023-03-05T11:47:27.268Z,5.94
2023-03-05T11:50:00.032Z,5.94
2023-03-05T11:52:33.432Z,6.05
2023-03-05T11:55:06.960Z,6.01
2023-03-05T11:57:43.326Z,6.08
2023-03-05T12:00:16.232Z,6.02
2023-03-05T12:02:44.236Z,6.20
2023-03-05T12:05:15.818Z,6.44
2023-03-05T12:07:49.875Z,6.70
2023-03-05T12:10:21.490Z,6.90
2023-03-05T12:12:58.696Z,7.08
2023-03-05T12:15:56.619Z,7.14
2023-03-05T12:18:34.927Z,7.13
2023-03-05T12:21:08.976Z,7.01
2023-03-05T12:23:49.950Z,6.89
2023-03-05T12:26:17.907Z,6.90
2023-03-05T12:28:59.115Z,6.97
2023-03-05T12:31:37.946Z,6.75
2023-03-05T12:34:57.469Z,6.88
2023-03-05T12:37:59.720Z,6.70
2023-03-05T12:40:30.257Z,6.78
2023-03-05T12:42:59.936Z,6.85
2023-03-05T12:45:36.178Z,6.91
2023-03-05T12:48:45.988Z,7.06
2023-03-05T12:51:37.762Z,7.19
2023-03-05T12:54:28.160Z,7.31
2023-03-05T12:56:59.402Z,7.41
2023-03-05T12:59:35.761Z,7.43
2023-03-05T13:02:16.858Z,7.47
2023-03-05T13:04:46.916Z,7.46
2023-03-05T13:07:17.313Z,7.51
2023-03-05T13:09:54.353Z,7.55
2023-03-05T13:12:25.163Z,7.61
2023-03-05T13:15:00.553Z,7.69
2023-03-05T13:17:41.095Z,7.79
2023-03-05T13:20:33.919Z,7.88
2023-03-05T13:23:17.028Z,8.00
2023-03-05T13:25:45.891Z,8.06
2023-03-05T13:28:16.760Z,8.10
2023-03-05T13:30:46.954Z,8.14
2023-03-05T13:33:18.582Z,8.10
2023-03-05T13:35:47.413Z,8.06
2023-03-05T13:38:25.520Z,7.78
2023-03-05T13:41:04.753Z,7.79
2023-03-05T13:43:34.611Z,7.87
2023-03-05T13:46:02.486Z,7.90
2023-03-05T13:48:30.272Z,7.94
2023-03-05T13:50:59.502Z,7.95
2023-03-05T13:53:29.036Z,7.95
2023-03-05T13:55:59.631Z,7.93
2023-03-05T13:58:52.287Z,7.91
2023-03-05T14:01:31.815Z,7.90
2023-03-05T14:04:09.862Z,7.89
2023-03-05T14:06:43.141Z,7.82
2023-03-05T14:09:21.167Z,7.79
2023-03-05T14:12:04.210Z,7.83
2023-03-05T14:14:37.717Z,7.71
2023-03-05T14:17:37.474Z,7.69
2023-03-05T14:20:23.702Z,7.73
2023-03-05T14:22:53.118Z,7.77
2023-03-05T14:25:37.123Z,7.78
2023-03-05T14:28:09.858Z,7.62
2023-03-05T14:30:39.035Z,7.54
2023-03-05T14:33:06.982Z,7.44
2023-03-05T14:35:35.815Z,7.35
2023-03-05T14:38:04.093Z,7.37
2023-03-05T14:40:33.101Z,7.28
2023-03-05T14:43:01.566Z,7.20
2023-03-05T14:45:34.259Z,7.22
2023-03-05T14:48:05.251Z,7.11
2023-03-05T14:50:36.151Z,7.04
2023-03-05T14:53:07.767Z,6.92
2023-03-05T14:55:38.236Z,6.88
2023-03-05T14:58:12.324Z,6.82
2023-03-05T15:00:40.219Z,6.79
2023-03-05T15:03:11.704Z,6.79
2023-03-05T15:05:40.126Z,6.75
2023-03-05T15:08:14.751Z,6.71
2023-03-05T15:10:45.071Z,6.68
2023-03-05T15:13:15.307Z,6.61
2023-03-05T15:15:44.135Z,6.65
2023-03-05T15:18:14.382Z,6.61
2023-03-05T15:20:42.171Z,6.73
2023-03-05T15:23:10.524Z,6.70
2023-03-05T15:25:38.365Z,6.59
2023-03-05T15:28:06.322Z,6.62
2023-03-05T15:30:36.641Z,6.65
2023-03-05T15:33:07.070Z,6.64
2023-03-05T15:35:36.379Z,6.63
2023-03-05T15:38:04.519Z,6.62
2023-03-05T15:40:32.622Z,6.67
2023-03-05T15:43:01.092Z,6.66
2023-03-05T15:45:31.254Z,6.71
2023-03-05T15:47:59.112Z,6.69
2023-03-05T15:50:26.976Z,6.55
2023-03-05T15:52:56.370Z,6.51
2023-03-05T15:55:24.237Z,6.51
2023-03-05T15:57:53.742Z,6.53
2023-03-05T16:00:26.094Z,6.46
2023-03-05T16:02:54.103Z,6.41
2023-03-05T16:05:21.999Z,6.37
2023-03-05T16:07:52.214Z,6.40
2023-03-05T16:10:24.096Z,6.36
2023-03-05T16:12:55.483Z,6.26
2023-03-05T16:15:23.982Z,6.32
2023-03-05T16:17:55.413Z,6.31
2023-03-05T16:20:23.646Z,6.33
2023-03-05T16:22:51.522Z,6.16
2023-03-05T16:25:19.545Z,6.08
2023-03-05T16:27:48.749Z,5.91
2023-03-05T16:30:17.591Z,5.89
2023-03-05T16:32:45.388Z,5.80
2023-03-05T16:35:13.542Z,5.77
2023-03-05T16:37:42.441Z,5.72
2023-03-05T16:40:12.190Z,5.77
2023-03-05T16:42:40.123Z,5.79
2023-03-05T16:45:11.451Z,5.67
2023-03-05T16:47:39.607Z,5.55
2023-03-05T16:50:09.104Z,5.44
2023-03-05T16:52:37.530Z,5.42
2023-03-05T16:55:06.227Z,5.46
2023-03-05T16:57:33.985Z,5.42
2023-03-05T17:00:04.064Z,5.26
2023-03-05T17:02:33.715Z,5.24
2023-03-05T17:05:01.813Z,5.30
2023-03-05T17:07:29.560Z,5.26
2023-03-05T17:09:57.601Z,5.25
2023-03-05T17:12:25.337Z,5.19
2023-03-05T17:14:53.127Z,5.21
2023-03-05T17:17:20.947Z,5.21
2023-03-05T17:19:50.113Z,5.23
2023-03-05T17:22:17.885Z,5.28
2023-03-05T17:24:47.283Z,5.28
2023-03-05T17:27:18.796Z,5.29
2023-03-05T17:29:46.556Z,5.25
2023-03-05T17:32:14.840Z,5.12
2023-03-05T17:34:43.367Z,5.14
2023-03-05T17:37:12.692Z,5.18
2023-03-05T17:39:40.676Z,5.04
2023-03-05T17:42:08.594Z,4.92
2023-03-05T17:44:36.507Z,4.89
2023-03-05T17:47:04.611Z,4.90
2023-03-05T17:49:32.360Z,4.89
2023-03-05T17:52:00.277Z,4.88
2023-03-05T17:54:29.457Z,4.93
2023-03-05T17:56:58.254Z,4.88
2023-03-05T17:59:26.678Z,4.88
2023-03-05T18:01:54.436Z,4.84
2023-03-05T18:04:22.199Z,4.77
2023-03-05T18:06:50.036Z,4.72
2023-03-05T18:09:17.787Z,4.74
2023-03-05T18:11:46.909Z,4.70
2023-03-05T18:14:16.863Z,4.70
2023-03-05T18:16:45.220Z,4.66
2023-03-05T18:19:13.029Z,4.68
2023-03-05T18:21:41.580Z,4.66
2023-03-05T18:24:10.213Z,4.69
2023-03-05T18:26:38.026Z,4.71
2023-03-05T18:29:07.170Z,4.63
2023-03-05T18:31:34.985Z,4.62
2023-03-05T18:34:02.733Z,4.62
2023-03-05T18:36:30.574Z,4.59
2023-03-05T18:38:58.328Z,4.65
2023-03-05T18:41:28.100Z,4.71
2023-03-05T18:43:56.421Z,4.56
2023-03-05T18:46:25.790Z,4.59
2023-03-05T18:48:53.609Z,4.59
2023-03-05T18:51:22.769Z,4.49
2023-03-05T18:53:51.894Z,4.46
2023-03-05T18:56:19.751Z,4.45
2023-03-05T18:58:48.796Z,4.41
2023-03-05T19:01:17.563Z,4.42
2023-03-05T19:03:47.194Z,4.40
2023-03-05T19:06:16.023Z,4.38
2023-03-05T19:08:43.826Z,4.35
2023-03-05T19:11:16.728Z,4.31
2023-03-05T19:13:49.061Z,4.29
2023-03-05T19:16:18.984Z,4.29
2023-03-05T19:18:57.358Z,4.21
2023-03-05T19:21:25.689Z,4.27
2023-03-05T19:23:53.571Z,4.27
2023-03-05T19:26:21.373Z,4.25
2023-03-05T19:28:49.332Z,4.18
2023-03-05T19:31:17.378Z,4.12
2023-03-05T19:33:45.180Z,4.14
2023-03-05T19:36:14.490Z,4.15
2023-03-05T19:38:43.220Z,4.15
2023-03-05T19:41:12.933Z,4.15
2023-03-05T19:43:41.031Z,4.16
2023-03-05T19:46:09.782Z,4.20
2023-03-05T19:48:39.252Z,4.22
2023-03-05T19:51:10.248Z,4.25
2023-03-05T19:53:39.588Z,4.30
2023-03-05T19:56:08.787Z,4.25
2023-03-05T19:58:37.675Z,4.25
2023-03-05T20:01:09.543Z,4.25
2023-03-05T20:03:38.350Z,4.22
2023-03-05T20:06:06.540Z,4.26
2023-03-05T20:08:34.578Z,4.27
2023-03-05T20:11:04.189Z,4.26
2023-03-05T20:13:32.043Z,4.22
2023-03-05T20:15:59.906Z,4.24
2023-03-05T20:18:27.787Z,4.24
2023-03-05T20:20:57.971Z,4.24
2023-03-05T20:23:25.820Z,4.17
2023-03-05T20:25:53.644Z,4.15
2023-03-05T20:28:26.145Z,4.16
2023-03-05T20:30:57.656Z,4.10
2023-03-05T20:33:26.182Z,4.10
2023-03-05T20:35:56.240Z,4.11
2023-03-05T20:38:26.072Z,4.12
2023-03-05T20:40:56.033Z,4.07
2023-03-05T20:43:26.221Z,4.08
2023-03-05T20:45:55.200Z,4.04
2023-03-05T20:48:22.914Z,4.07
2023-03-05T20:50:50.802Z,4.05
2023-03-05T20:53:19.125Z,4.05
2023-03-05T20:55:47.361Z,4.01
2023-03-05T20:58:15.154Z,4.04
2023-03-05T21:00:44.329Z,3.95
2023-03-05T21:03:12.732Z,3.95
2023-03-05T21:05:40.622Z,3.96
2023-03-05T21:08:08.461Z,3.93
2023-03-05T21:10:36.378Z,3.95
2023-03-05T21:13:04.175Z,3.99
2023-03-05T21:15:32.101Z,4.04
2023-03-05T21:18:01.276Z,4.05
2023-03-05T21:20:30.926Z,4.07
2023-03-05T21:22:59.284Z,4.07
2023-03-05T21:25:28.965Z,4.09
2023-03-05T21:27:59.096Z,4.10
2023-03-05T21:30:31.936Z,4.09
2023-03-05T21:33:01.292Z,4.09
2023-03-05T21:35:29.502Z,4.08
2023-03-05T21:37:57.290Z,4.06
2023-03-05T21:40:25.193Z,4.04
2023-03-05T21:42:53.767Z,4.02
2023-03-05T21:45:24.250Z,3.97
2023-03-05T21:47:52.725Z,3.94
2023-03-05T21:50:22.479Z,3.90
2023-03-05T21:52:51.099Z,3.85
2023-03-05T21:55:22.557Z,3.85
2023-03-05T21:57:50.744Z,3.84
2023-03-05T22:00:22.690Z,3.84
2023-03-05T22:02:50.904Z,3.83
2023-03-05T22:05:18.953Z,3.80
2023-03-05T22:07:48.120Z,3.81
2023-03-05T22:10:17.988Z,3.80
2023-03-05T22:12:54.385Z,3.76
2023-03-05T22:15:22.708Z,3.69
2023-03-05T22:17:51.048Z,3.71
2023-03-05T22:20:19.694Z,3.66
2023-03-05T22:22:48.993Z,3.63
2023-03-05T22:25:17.319Z,3.62
2023-03-05T22:27:45.890Z,3.61
2023-03-05T22:30:14.875Z,3.61
2023-03-05T22:32:42.659Z,3.60
2023-03-05T22:35:13.320Z,3.61
2023-03-05T22:37:41.476Z,3.61
2023-03-05T22:40:14.561Z,3.59
2023-03-05T22:42:42.400Z,3.58
2023-03-05T22:45:11.086Z,3.57
2023-03-05T22:47:39.116Z,3.54
2023-03-05T22:50:08.236Z,3.55
2023-03-05T22:52:36.128Z,3.56
2023-03-05T22:55:04.638Z,3.54
2023-03-05T22:57:34.780Z,3.49
2023-03-05T23:00:02.591Z,3.46
2023-03-05T23:02:30.416Z,3.47
2023-03-05T23:05:00.458Z,3.45
2023-03-05T23:07:30.485Z,3.43
2023-03-05T23:09:59.749Z,3.40
2023-03-05T23:12:29.540Z,3.37
2023-03-05T23:15:00.212Z,3.31
2023-03-05T23:17:28.137Z,3.32
2023-03-05T23:19:56.159Z,3.30
2023-03-05T23:22:24.009Z,3.29
2023-03-05T23:24:51.858Z,3.26
2023-03-05T23:27:20.783Z,3.25
2023-03-05T23:29:58.829Z,3.22
2023-03-05T23:32:30.413Z,3.21
2023-03-05T23:34:58.235Z,3.19
2023-03-05T23:37:26.014Z,3.16
2023-03-05T23:39:53.756Z,3.13
2023-03-05T23:42:21.537Z,3.11
2023-03-05T23:44:49.362Z,3.08
2023-03-05T23:47:17.083Z,3.04
2023-03-05T23:49:46.284Z,2.97
2023-03-05T23:52:14.048Z,2.93
2023-03-05T23:54:41.806Z,2.86
2023-03-05T23:57:09.546Z,2.85
2023-03-05T23:59:37.441Z,2.85
